Roma, Italia

02:33 AM CEST die 23o October, anno 2014 (GMT +0200)
Ciampino | Change Station
CLOSE
Current Station
Personal Weather Stations
Location: Ciampino, LAZIO
Elevation: 348 ft
Nearby Weather Stations
Active Advisory: Rain

Elev 348 ft 41.81 °N, 12.60 °E | Updated 3 minutes ago

Clear
Serena
50.7 °F
Feels Like 50.7 °F
N
0.7
Ventus Variabilis Ventus from Inter Aquilonem et Zephyrus
Gusts 1.6 mph

Hodie
High -- | Low -- °F
--% Chance of Precip.
Yesterday
High -- | Low -- °F
Precip. -- in
7:30 AM 6:16 PM
Waning Crescent, 1% visible
Pressio 29.83 in
Visibilitas -9999.0 milia passuum
Clouds
Frigus in quo Ros apparet 40 °F
Umor 66%
Rainfall 0.00 in
Snow Depth Not available.
UV Not available.
Pollen Not available.
Air Quality Not available.
Flu Activity Not available.
METAR LIRA 230015Z 33004KT CAVOK 08/02 Q1010

More Conditions Fewer Conditions

Pressio 29.83 in
Visibilitas -9999.0 milia passuum
Clouds
Frigus in quo Ros apparet 40 °F
Umor 66%
Rainfall 0.00 in
Snow Depth Not available.
UV Not available.
Pollen Not available.
Air Quality Not available.
Flu Activity Not available.
METAR LIRA 230015Z 33004KT CAVOK 08/02 Q1010

More Conditions Fewer Conditions

10-Day Weather Forecast

Almanac

Astronomy

Oct. 23, 2014 Rise Set
Actual Time 7:30 AM CEST 6:16 PM CEST
Civil Twilight 7:02 AM CEST 6:45 PM CEST
Nautical Twilight 6:30 AM CEST 7:17 PM CEST
Astronomical Twilight 5:57 AM CEST 7:49 PM CEST
Moon 6:53 AM CEST 6:08 PM CEST
Length Of Visible Light 11h 42m
Length of Day
10h 45m
Tomorrow will be 2m 36s shorter.
Waning Crescent, 1% of the Moon is Illuminated
Oct 22
Waning Crescent
Oct 23
New
Oct 30
First Quarter
Nov 6
Full
Nov 14
Last Quarter

Yesterday's Extremes

Country Highs Country Lows

Community

WunderPhotos

Upload Photos

1,764,095 photos uploaded!

WunderBlogs® & News

Nearby

Snow Depth

Not available.

Earthquake Activity

City Distance Mag. Time & Date
No recent earthquake activity has been reported nearby.
Minimum magnitude displayed is 2.5.

Coastal Water Temperatures

Locus Calor
No Stations Reporting

Nearby Weather Stations